Aeroporto :







RITROVATECI SU...

 
LOGIN :

Iscrizione | Disclaimer

   EN    FR    IT 

 









Sommario :    VFR   VFR Marginale   IFR   IFR Intensivo   IFR Molto Intensivo
Visibilità : 
Base nubi : 
>= 8 km
>= 3000ft
5 / 8 km
1000 / 3000 ft
1500m / 5 km
500 / 1000 ft
800 / 1500m
200 / 500 ft
< 800m
< 200 ft
Simboli :   Temporali  Nebbia  Neve Forte  Precipitazioni Forti  Vento > 20 kt






- Altitudine del aeroporto : 36 ft
- Codice IATA : PTP


TFFR - Le Raizet

ULTIMO METAR :
  • 201700Z AUTO 18010KT 130V220 CAVOK 32/24 Q1010 TEMPO 4000 SHRA SCT020TCU

METARs OBSOLETI :
  • 201630Z AUTO 16007KT 130V200 9999 FEW036 32/25 Q1010 TEMPO 4000 SHRA SCT020TCU
  • 201600Z AUTO 28004KT 190V320 9999 BKN037 BKN045 32/24 Q1010 TEMPO 4000 SHRA SCT020TCU
  • 201530Z AUTO 01004KT 310V060 CAVOK 30/23 Q1011 TEMPO 18010KT 4000 SHRA SCT020TCU
  • 201500Z AUTO 31006KT 260V340 9999 SCT041 32/23 Q1011 TEMPO 18010KT

TAF TAF TFFR
Valido dal 20 a 18 ore il 21 a 18 ore UTC


201700Z 2018/2118 16010KT 9999 SCT035
PROB30
TEMPO 2018/2021 4000 SHRA SCT025TCU
BECMG 2021/2023 VRB02KT
PROB30
TEMPO 2106/2111 4000 SHRA SCT020TCU
BECMG 2113/2115 16010KT
FIR TTZP / America del Nord



MetMap, La meteo Aeronautica in un colpo d'occhio ! - Copyright ORBIFLY Dicembre 2007 - Disclaimer

ORBIFLY MET'MAP TEAM :

Programmazione e sviluppo : Alexandra Zaïnal
Concezione : Baudouin d'Aumeries
Aiuto per la programmazione : Marc-Olivier Méhu
Supporto tecnico e logistico : Manuel Goepfert
Aiuto per la traduzione : Arnaldo La Scala

Contatto : metmap@orbifly.com




FONTI E CREDITI :

   NOAA